Time;durP1;ratioP1;P1;durP2;ratioP2;P2;SDS_P1;SDS_P2;PMS_P1;PMS_P2;Temp;Humidity;BMP_temperature;BMP_pressure;BME280_temperature;BME280_humidity;BME280_pressure;Samples;Min_cycle;Max_cycle;Signal;HPM_P1;HPM_P2
2023/08/29 00:02:06;;;;;;;2.70;1.67;;;;;;;;;;5032364;28;20502;-67
2023/08/29 00:04:31;;;;;;;4.40;1.65;;;;;;;;;;5014795;28;20138;-68
2023/08/29 00:06:56;;;;;;;4.43;1.80;;;;;;;;;;5034835;28;20082;-67
2023/08/29 00:09:22;;;;;;;4.60;2.00;;;;;;;;;;5033187;28;20473;-67
2023/08/29 00:11:47;;;;;;;3.10;1.83;;;;;;;;;;4998048;28;20051;-67
2023/08/29 00:14:12;;;;;;;2.88;1.80;;;;;;;;;;5026873;28;20040;-67
2023/08/29 00:16:40;;;;;;;4.95;1.90;;;;;;;;;;5034121;28;20031;-67
2023/08/29 00:19:05;;;;;;;3.17;1.80;;;;;;;;;;5033340;28;20048;-67
2023/08/29 00:21:31;;;;;;;3.33;1.77;;;;;;;;;;5033235;28;20124;-67
2023/08/29 00:23:58;;;;;;;3.03;1.85;;;;;;;;;;5033389;28;20029;-67
2023/08/29 00:26:26;;;;;;;3.85;2.00;;;;;;;;;;5031884;28;20632;-67
2023/08/29 00:28:55;;;;;;;2.50;1.73;;;;;;;;;;5032638;28;20071;-67
2023/08/29 00:31:20;;;;;;;5.20;2.03;;;;;;;;;;5015543;28;20033;-67
2023/08/29 00:33:45;;;;;;;5.20;1.90;;;;;;;;;;5031152;28;20121;-67
2023/08/29 00:36:11;;;;;;;2.97;1.90;;;;;;;;;;5031611;28;20044;-67
2023/08/29 00:38:39;;;;;;;4.80;1.98;;;;;;;;;;5032699;28;20567;-67
2023/08/29 00:41:04;;;;;;;4.72;2.00;;;;;;;;;;5033249;28;20525;-67
2023/08/29 00:43:31;;;;;;;4.25;2.22;;;;;;;;;;5018501;28;20047;-67
2023/08/29 00:45:59;;;;;;;5.72;2.42;;;;;;;;;;5033404;28;20041;-66
2023/08/29 00:48:25;;;;;;;6.32;2.25;;;;;;;;;;5031117;28;20037;-66
2023/08/29 00:50:50;;;;;;;3.67;2.20;;;;;;;;;;5033442;28;20051;-66
2023/08/29 00:53:16;;;;;;;4.68;2.58;;;;;;;;;;5032589;28;20048;-66
2023/08/29 00:55:41;;;;;;;3.72;2.20;;;;;;;;;;5033075;28;20127;-66
2023/08/29 00:58:07;;;;;;;5.43;2.40;;;;;;;;;;5031819;28;20777;-66
2023/08/29 01:00:32;;;;;;;3.30;2.35;;;;;;;;;;5025929;28;20154;-66
2023/08/29 01:03:01;;;;;;;2.75;2.10;;;;;;;;;;5033587;28;20527;-66
2023/08/29 01:05:28;;;;;;;4.90;2.33;;;;;;;;;;5023936;28;20037;-66
2023/08/29 01:07:58;;;;;;;4.70;2.25;;;;;;;;;;5024329;28;20028;-67
2023/08/29 01:10:43;;;;;;;4.43;2.25;;;;;;;;;;5030889;28;20056;-67
2023/08/29 01:13:09;;;;;;;3.92;1.90;;;;;;;;;;5031361;28;20150;-67
2023/08/29 01:15:34;;;;;;;6.18;2.42;;;;;;;;;;5023255;28;20045;-66
2023/08/29 01:18:03;;;;;;;3.80;2.17;;;;;;;;;;5017328;28;20032;-66
2023/08/29 01:20:29;;;;;;;4.47;2.10;;;;;;;;;;5030711;28;20354;-66
2023/08/29 01:23:06;;;;;;;7.05;2.83;;;;;;;;;;5031758;28;20603;-66
2023/08/29 01:25:39;;;;;;;5.53;3.40;;;;;;;;;;5013291;28;20216;-67
2023/08/29 01:28:06;;;;;;;7.30;4.07;;;;;;;;;;5018152;28;20045;-66
2023/08/29 01:30:34;;;;;;;19.73;9.27;;;;;;;;;;5015407;28;20280;-66
2023/08/29 01:33:01;;;;;;;24.33;11.10;;;;;;;;;;5017042;28;20056;-66
2023/08/29 01:35:26;;;;;;;20.80;10.85;;;;;;;;;;5014047;28;20052;-67
2023/08/29 01:37:52;;;;;;;17.00;9.57;;;;;;;;;;5019955;28;20029;-66
2023/08/29 01:40:17;;;;;;;14.93;8.75;;;;;;;;;;5029338;28;20728;-67
2023/08/29 01:42:43;;;;;;;13.80;6.43;;;;;;;;;;5032315;28;20040;-67
2023/08/29 01:45:08;;;;;;;15.43;5.35;;;;;;;;;;5030991;28;20095;-67
2023/08/29 01:47:34;;;;;;;9.32;4.55;;;;;;;;;;5015040;28;20087;-66
2023/08/29 01:49:59;;;;;;;8.38;4.18;;;;;;;;;;5028903;28;20397;-66
2023/08/29 01:52:25;;;;;;;8.82;4.15;;;;;;;;;;5031607;28;21906;-66
2023/08/29 01:54:50;;;;;;;10.30;4.15;;;;;;;;;;5002713;28;20053;-66
2023/08/29 01:57:16;;;;;;;9.10;3.33;;;;;;;;;;4998167;28;20036;-66
2023/08/29 01:59:45;;;;;;;7.18;3.80;;;;;;;;;;5027873;28;20052;-68
2023/08/29 02:02:12;;;;;;;6.80;3.60;;;;;;;;;;5032046;28;20505;-68
2023/08/29 02:04:38;;;;;;;6.22;3.10;;;;;;;;;;5009642;28;20037;-67
2023/08/29 02:07:03;;;;;;;5.53;3.25;;;;;;;;;;5026630;28;20040;-68
2023/08/29 02:09:28;;;;;;;6.22;3.22;;;;;;;;;;5030246;28;20037;-66
2023/08/29 02:11:55;;;;;;;6.25;2.95;;;;;;;;;;5032559;28;20037;-66
2023/08/29 02:14:20;;;;;;;4.93;2.80;;;;;;;;;;5031960;28;20489;-67
2023/08/29 02:16:45;;;;;;;4.47;2.50;;;;;;;;;;5030453;28;20031;-66
2023/08/29 02:19:11;;;;;;;2.45;1.65;;;;;;;;;;5029320;28;20036;-66
2023/08/29 02:21:38;;;;;;;4.13;1.70;;;;;;;;;;5029201;28;20117;-66
2023/08/29 02:24:04;;;;;;;4.57;1.70;;;;;;;;;;5030149;28;20033;-66
2023/08/29 02:26:29;;;;;;;5.05;2.00;;;;;;;;;;5028703;28;20029;-66
2023/08/29 02:28:54;;;;;;;5.47;1.90;;;;;;;;;;5013634;28;20025;-66
2023/08/29 02:31:20;;;;;;;5.30;2.28;;;;;;;;;;5030954;28;20116;-66
2023/08/29 02:33:45;;;;;;;5.00;1.88;;;;;;;;;;5030667;28;20064;-66
2023/08/29 02:36:11;;;;;;;5.18;2.30;;;;;;;;;;5030385;28;20401;-66
2023/08/29 02:38:36;;;;;;;5.63;2.40;;;;;;;;;;5029949;28;20040;-66
2023/08/29 02:41:02;;;;;;;4.85;2.53;;;;;;;;;;5031203;28;20683;-66
2023/08/29 02:43:27;;;;;;;4.32;2.60;;;;;;;;;;5028161;28;20045;-66
2023/08/29 02:45:53;;;;;;;5.57;3.05;;;;;;;;;;5030922;28;20823;-66
2023/08/29 02:48:18;;;;;;;6.50;2.90;;;;;;;;;;5030918;28;20032;-66
2023/08/29 02:50:45;;;;;;;8.35;2.60;;;;;;;;;;5030810;28;20044;-66
2023/08/29 02:53:10;;;;;;;3.25;2.10;;;;;;;;;;5030076;28;20120;-66
2023/08/29 02:55:36;;;;;;;4.45;2.00;;;;;;;;;;5027420;28;20044;-67
2023/08/29 02:58:01;;;;;;;5.28;2.20;;;;;;;;;;5030823;28;20028;-66
2023/08/29 03:00:27;;;;;;;5.50;1.98;;;;;;;;;;5012926;28;20036;-66
2023/08/29 03:02:52;;;;;;;7.30;2.25;;;;;;;;;;5030948;28;20043;-66
2023/08/29 03:05:17;;;;;;;5.13;2.67;;;;;;;;;;5013139;28;20528;-66
2023/08/29 03:07:42;;;;;;;5.38;2.53;;;;;;;;;;5020751;28;20127;-66
2023/08/29 03:10:10;;;;;;;9.48;2.78;;;;;;;;;;5007753;28;20041;-66
2023/08/29 03:12:35;;;;;;;4.85;2.60;;;;;;;;;;5027741;28;20055;-66
2023/08/29 03:15:01;;;;;;;7.03;2.58;;;;;;;;;;5030772;28;20045;-66
2023/08/29 03:17:26;;;;;;;6.75;2.30;;;;;;;;;;5030196;28;20048;-66
2023/08/29 03:19:51;;;;;;;5.88;2.60;;;;;;;;;;5027649;28;20265;-65
2023/08/29 03:22:16;;;;;;;6.10;2.70;;;;;;;;;;5030982;28;20056;-66
2023/08/29 03:24:45;;;;;;;7.47;3.13;;;;;;;;;;5029103;28;20040;-65
2023/08/29 03:27:10;;;;;;;8.38;3.30;;;;;;;;;;5028572;28;20033;-66
2023/08/29 03:29:35;;;;;;;4.55;3.45;;;;;;;;;;5029881;28;20363;-67
2023/08/29 03:32:00;;;;;;;6.15;3.25;;;;;;;;;;5028103;28;20040;-67
2023/08/29 03:34:26;;;;;;;6.68;3.20;;;;;;;;;;5025866;28;20043;-67
2023/08/29 03:36:51;;;;;;;5.40;3.20;;;;;;;;;;5018939;28;20120;-67
2023/08/29 03:39:16;;;;;;;5.28;3.20;;;;;;;;;;5027674;28;20618;-67
2023/08/29 03:41:41;;;;;;;6.28;3.28;;;;;;;;;;5028696;28;20098;-67
2023/08/29 03:44:09;;;;;;;6.45;3.50;;;;;;;;;;5029951;28;20594;-67
2023/08/29 03:46:34;;;;;;;7.22;3.60;;;;;;;;;;5014878;28;20045;-66
2023/08/29 03:49:00;;;;;;;10.60;3.45;;;;;;;;;;5001038;28;20167;-66
2023/08/29 03:51:25;;;;;;;6.80;3.30;;;;;;;;;;5018304;28;20525;-66
2023/08/29 03:53:50;;;;;;;6.07;3.20;;;;;;;;;;5029367;28;20115;-65
2023/08/29 03:56:18;;;;;;;5.65;3.40;;;;;;;;;;5031540;28;20094;-65
2023/08/29 03:58:45;;;;;;;8.60;3.85;;;;;;;;;;5031013;28;20142;-66
2023/08/29 04:01:11;;;;;;;5.88;3.50;;;;;;;;;;5029283;28;20046;-66
2023/08/29 04:03:37;;;;;;;5.82;3.55;;;;;;;;;;5029268;28;20033;-66
2023/08/29 04:06:03;;;;;;;5.50;3.60;;;;;;;;;;5030521;28;20037;-66
2023/08/29 04:08:28;;;;;;;5.85;3.55;;;;;;;;;;5029167;28;20426;-65
2023/08/29 04:10:53;;;;;;;5.40;3.53;;;;;;;;;;5029847;28;20037;-66
2023/08/29 04:13:19;;;;;;;5.97;4.00;;;;;;;;;;5027814;28;20045;-65
2023/08/29 04:15:44;;;;;;;7.57;4.05;;;;;;;;;;5029679;28;20079;-66
2023/08/29 04:18:09;;;;;;;7.07;3.85;;;;;;;;;;5028975;28;20039;-66
2023/08/29 04:20:35;;;;;;;8.30;4.28;;;;;;;;;;5014787;28;20510;-66
2023/08/29 04:23:03;;;;;;;6.32;4.35;;;;;;;;;;5007976;28;20040;-66
2023/08/29 04:25:34;;;;;;;8.05;4.10;;;;;;;;;;5033010;28;20203;-65
2023/08/29 04:28:01;;;;;;;5.72;4.03;;;;;;;;;;5033448;28;20094;-66
2023/08/29 04:30:27;;;;;;;8.15;4.57;;;;;;;;;;5014963;28;20025;-66
2023/08/29 04:32:52;;;;;;;10.20;4.68;;;;;;;;;;5033393;28;20045;-66
2023/08/29 04:35:18;;;;;;;9.70;5.40;;;;;;;;;;5028577;28;20040;-66
2023/08/29 04:37:47;;;;;;;10.70;5.15;;;;;;;;;;5008968;28;20098;-66
2023/08/29 04:40:12;;;;;;;10.73;5.47;;;;;;;;;;5032516;28;20063;-65
2023/08/29 04:42:40;;;;;;;12.93;5.20;;;;;;;;;;5033392;28;20117;-66
2023/08/29 04:45:06;;;;;;;10.65;5.43;;;;;;;;;;5031971;28;20380;-66
2023/08/29 04:47:32;;;;;;;8.45;4.80;;;;;;;;;;5032634;28;20114;-66
2023/08/29 04:49:58;;;;;;;9.13;4.40;;;;;;;;;;5029868;28;20032;-65
2023/08/29 04:52:27;;;;;;;12.23;4.55;;;;;;;;;;5033036;28;20854;-66
2023/08/29 04:54:53;;;;;;;7.80;4.07;;;;;;;;;;5032365;28;20050;-66
2023/08/29 04:57:18;;;;;;;9.13;4.32;;;;;;;;;;5032469;28;20125;-65
2023/08/29 04:59:43;;;;;;;9.60;4.30;;;;;;;;;;5033275;28;20102;-66
2023/08/29 05:02:09;;;;;;;8.00;3.88;;;;;;;;;;5034769;28;20311;-66
2023/08/29 05:04:35;;;;;;;8.70;3.92;;;;;;;;;;5030343;28;20032;-65
2023/08/29 05:07:00;;;;;;;9.32;4.15;;;;;;;;;;5031555;28;20307;-65
2023/08/29 05:09:25;;;;;;;8.05;3.35;;;;;;;;;;5023900;28;20114;-66
2023/08/29 05:11:50;;;;;;;9.88;3.65;;;;;;;;;;5011344;28;20037;-67
2023/08/29 05:14:16;;;;;;;8.45;3.45;;;;;;;;;;5009883;28;20037;-67
2023/08/29 05:16:41;;;;;;;9.85;3.90;;;;;;;;;;5033062;28;20060;-66
2023/08/29 05:19:07;;;;;;;13.23;4.43;;;;;;;;;;5032295;28;20025;-67
2023/08/29 05:21:33;;;;;;;11.40;4.32;;;;;;;;;;5034436;28;20264;-67
2023/08/29 05:23:58;;;;;;;13.73;4.85;;;;;;;;;;5032833;28;20510;-67
2023/08/29 05:26:24;;;;;;;11.55;5.13;;;;;;;;;;5033074;28;20043;-67
2023/08/29 05:28:49;;;;;;;11.90;5.35;;;;;;;;;;5032517;28;20633;-66
2023/08/29 05:31:17;;;;;;;13.35;4.82;;;;;;;;;;5031863;28;20060;-67
2023/08/29 05:33:47;;;;;;;10.10;4.78;;;;;;;;;;5032635;28;20063;-66
2023/08/29 05:36:13;;;;;;;10.73;4.85;;;;;;;;;;5017667;28;20067;-66
2023/08/29 05:38:38;;;;;;;10.52;5.88;;;;;;;;;;5033766;28;20459;-66
2023/08/29 05:41:03;;;;;;;14.43;5.60;;;;;;;;;;5016901;28;20040;-68
2023/08/29 05:43:29;;;;;;;15.57;5.45;;;;;;;;;;5032895;28;20284;-66
2023/08/29 05:45:54;;;;;;;12.48;5.30;;;;;;;;;;5033016;28;20798;-66
2023/08/29 05:48:19;;;;;;;11.32;6.15;;;;;;;;;;5029975;28;20489;-66
2023/08/29 05:50:47;;;;;;;13.65;5.63;;;;;;;;;;5014264;28;20055;-67
2023/08/29 05:53:12;;;;;;;14.18;5.25;;;;;;;;;;5008789;28;20488;-67
2023/08/29 05:55:38;;;;;;;11.75;4.47;;;;;;;;;;5030872;28;20053;-67
2023/08/29 05:58:03;;;;;;;7.53;3.97;;;;;;;;;;5029452;28;20147;-67
2023/08/29 06:00:29;;;;;;;8.52;4.05;;;;;;;;;;5030985;28;20499;-67
2023/08/29 06:02:55;;;;;;;7.20;4.18;;;;;;;;;;5032074;28;20048;-67
2023/08/29 06:05:20;;;;;;;6.82;3.70;;;;;;;;;;5031607;28;20040;-67
2023/08/29 06:07:46;;;;;;;8.55;3.75;;;;;;;;;;5031956;28;20422;-67
2023/08/29 06:10:11;;;;;;;6.10;4.00;;;;;;;;;;5031422;28;20059;-67
2023/08/29 06:12:36;;;;;;;7.22;3.63;;;;;;;;;;5030404;28;20098;-67
2023/08/29 06:15:02;;;;;;;7.38;3.80;;;;;;;;;;5026758;28;20091;-67
2023/08/29 06:17:27;;;;;;;8.68;3.42;;;;;;;;;;5028666;28;20799;-66
2023/08/29 06:19:52;;;;;;;7.97;3.17;;;;;;;;;;5031670;28;20032;-66
2023/08/29 06:22:18;;;;;;;5.10;3.38;;;;;;;;;;5031143;28;20040;-67
2023/08/29 06:24:43;;;;;;;7.03;3.40;;;;;;;;;;5016982;28;20044;-67
2023/08/29 06:27:08;;;;;;;7.28;3.70;;;;;;;;;;5030822;28;20048;-67
2023/08/29 06:29:34;;;;;;;5.25;3.17;;;;;;;;;;5031123;28;20110;-66
2023/08/29 06:31:59;;;;;;;7.72;4.13;;;;;;;;;;5030981;28;20036;-66
2023/08/29 06:34:24;;;;;;;6.78;3.80;;;;;;;;;;5030462;28;20134;-67
2023/08/29 06:36:50;;;;;;;6.18;4.00;;;;;;;;;;5027614;28;20029;-67
2023/08/29 06:39:15;;;;;;;9.38;3.75;;;;;;;;;;5024622;28;20303;-67
2023/08/29 06:41:41;;;;;;;6.03;3.60;;;;;;;;;;5032065;28;20062;-67
2023/08/29 06:44:06;;;;;;;6.97;3.60;;;;;;;;;;5028416;28;20257;-66
2023/08/29 06:46:31;;;;;;;6.25;3.30;;;;;;;;;;5029659;28;21909;-66
2023/08/29 06:48:57;;;;;;;4.47;3.03;;;;;;;;;;5030331;28;20037;-66
2023/08/29 06:51:24;;;;;;;5.93;2.92;;;;;;;;;;5014388;28;20237;-67
2023/08/29 06:53:50;;;;;;;8.35;3.50;;;;;;;;;;5001997;28;20658;-66
2023/08/29 06:56:15;;;;;;;6.20;3.90;;;;;;;;;;5001628;28;20128;-66
2023/08/29 06:58:40;;;;;;;5.50;3.58;;;;;;;;;;5030653;28;20413;-67
2023/08/29 07:01:08;;;;;;;7.65;3.40;;;;;;;;;;5031617;28;20418;-67
2023/08/29 07:03:35;;;;;;;7.93;3.45;;;;;;;;;;5030436;28;20639;-67
2023/08/29 07:06:00;;;;;;;5.43;2.75;;;;;;;;;;5031354;28;20094;-66
2023/08/29 07:08:26;;;;;;;6.38;2.97;;;;;;;;;;5013212;28;20054;-66
2023/08/29 07:10:56;;;;;;;8.55;2.80;;;;;;;;;;5031077;28;20394;-67
2023/08/29 07:13:22;;;;;;;5.40;2.00;;;;;;;;;;5031041;28;20097;-66
2023/08/29 07:15:47;;;;;;;4.03;2.00;;;;;;;;;;4991440;28;20055;-66
2023/08/29 07:18:13;;;;;;;4.25;1.90;;;;;;;;;;5006195;28;20497;-66
2023/08/29 07:20:38;;;;;;;2.65;1.50;;;;;;;;;;5028370;28;20122;-66
2023/08/29 07:23:04;;;;;;;2.22;1.20;;;;;;;;;;5031108;28;20501;-67
2023/08/29 07:25:35;;;;;;;4.10;1.10;;;;;;;;;;5029673;28;20110;-67
2023/08/29 07:28:00;;;;;;;2.55;0.93;;;;;;;;;;5011408;28;20177;-66
2023/08/29 07:30:26;;;;;;;1.40;0.90;;;;;;;;;;5027516;28;20331;-66
2023/08/29 07:32:51;;;;;;;5.55;1.10;;;;;;;;;;4999743;28;20127;-66
2023/08/29 07:35:19;;;;;;;2.17;0.82;;;;;;;;;;5026729;28;20115;-66
2023/08/29 07:37:46;;;;;;;2.28;1.20;;;;;;;;;;5031239;28;20541;-67
2023/08/29 07:40:12;;;;;;;2.00;1.00;;;;;;;;;;5032154;28;20060;-65
2023/08/29 07:42:37;;;;;;;1.98;1.00;;;;;;;;;;5030939;28;20085;-66
2023/08/29 07:45:03;;;;;;;1.80;0.98;;;;;;;;;;5031047;28;20037;-67
2023/08/29 07:47:28;;;;;;;2.55;0.90;;;;;;;;;;5017893;28;20056;-66
2023/08/29 07:49:53;;;;;;;3.00;1.10;;;;;;;;;;5012970;28;20140;-67
2023/08/29 07:52:18;;;;;;;4.13;1.20;;;;;;;;;;5030127;28;20220;-67
2023/08/29 07:54:44;;;;;;;3.90;1.05;;;;;;;;;;5032944;28;20038;-68
2023/08/29 07:57:09;;;;;;;2.58;1.33;;;;;;;;;;5034391;28;20537;-66
2023/08/29 07:59:37;;;;;;;2.70;1.05;;;;;;;;;;5036262;28;20155;-67
2023/08/29 08:02:02;;;;;;;2.63;1.10;;;;;;;;;;5035282;28;20653;-67
2023/08/29 08:04:28;;;;;;;3.75;1.00;;;;;;;;;;5034369;28;20029;-67
2023/08/29 08:06:53;;;;;;;2.30;1.10;;;;;;;;;;5032464;28;20433;-66
2023/08/29 08:09:19;;;;;;;2.00;1.17;;;;;;;;;;5034455;28;20037;-66
2023/08/29 08:11:44;;;;;;;2.65;1.17;;;;;;;;;;5015661;28;20099;-66
2023/08/29 08:14:11;;;;;;;1.50;0.90;;;;;;;;;;4991112;28;20036;-67
2023/08/29 08:16:36;;;;;;;2.83;0.90;;;;;;;;;;5031688;28;20645;-67
2023/08/29 08:19:04;;;;;;;1.08;0.80;;;;;;;;;;5030305;28;20309;-66
2023/08/29 08:21:29;;;;;;;2.17;1.20;;;;;;;;;;5032469;28;20036;-67
2023/08/29 08:23:55;;;;;;;2.03;0.90;;;;;;;;;;5034087;28;20067;-67
2023/08/29 08:26:20;;;;;;;2.78;0.90;;;;;;;;;;5035275;28;20057;-67
2023/08/29 08:28:45;;;;;;;2.25;1.00;;;;;;;;;;5034078;28;20155;-67
2023/08/29 08:31:10;;;;;;;3.17;0.90;;;;;;;;;;5032412;28;20563;-67
2023/08/29 08:33:36;;;;;;;1.00;0.80;;;;;;;;;;5033777;28;20296;-67
2023/08/29 08:36:01;;;;;;;1.40;0.88;;;;;;;;;;5033558;28;20060;-67
2023/08/29 08:38:26;;;;;;;1.27;0.80;;;;;;;;;;5034708;28;20057;-67
2023/08/29 08:40:56;;;;;;;1.48;0.88;;;;;;;;;;5034599;28;20040;-67
2023/08/29 08:43:21;;;;;;;1.55;0.70;;;;;;;;;;5034438;28;20037;-67
2023/08/29 08:45:51;;;;;;;2.17;0.90;;;;;;;;;;5015559;28;20071;-67
2023/08/29 08:48:16;;;;;;;1.73;0.80;;;;;;;;;;5032464;28;20607;-67
2023/08/29 08:50:44;;;;;;;1.20;0.70;;;;;;;;;;5032664;28;20051;-67
2023/08/29 08:53:13;;;;;;;1.27;0.70;;;;;;;;;;5032145;28;20041;-67
2023/08/29 08:55:41;;;;;;;;;;;;;;;;;;5034441;28;20078;-67
2023/08/29 08:58:06;;;;;;;1.80;0.80;;;;;;;;;;5014342;28;19920;-65
2023/08/29 09:00:32;;;;;;;1.38;0.82;;;;;;;;;;5025368;28;20060;-64
2023/08/29 09:03:00;;;;;;;2.50;0.90;;;;;;;;;;5002419;28;20041;-67
2023/08/29 09:05:26;;;;;;;0.80;0.75;;;;;;;;;;5022887;28;21484;-67
2023/08/29 09:07:51;;;;;;;2.65;0.80;;;;;;;;;;5008534;28;20041;-67
2023/08/29 09:10:16;;;;;;;2.33;0.70;;;;;;;;;;5026151;28;20486;-67
2023/08/29 09:12:52;;;;;;;1.00;0.60;;;;;;;;;;5011571;28;20713;-67
2023/08/29 09:15:19;;;;;;;0.98;0.68;;;;;;;;;;5005544;28;20076;-68
2023/08/29 09:17:53;;;;;;;3.05;0.70;;;;;;;;;;5020114;28;20037;-68
2023/08/29 09:20:19;;;;;;;4.30;0.70;;;;;;;;;;5009274;28;21978;-67
2023/08/29 09:22:45;;;;;;;2.88;0.90;;;;;;;;;;5020659;28;20072;-70
2023/08/29 09:25:11;;;;;;;2.03;0.60;;;;;;;;;;5031294;28;20052;-68
2023/08/29 09:27:43;;;;;;;1.48;0.60;;;;;;;;;;5027345;28;20099;-68
2023/08/29 09:30:10;;;;;;;0.85;0.47;;;;;;;;;;5030059;28;20778;-67
2023/08/29 09:32:35;;;;;;;0.90;0.60;;;;;;;;;;5026232;28;20229;-68
2023/08/29 09:35:02;;;;;;;2.55;0.90;;;;;;;;;;5024010;28;20129;-67
2023/08/29 09:37:29;;;;;;;0.80;0.60;;;;;;;;;;5028799;28;20055;-67
2023/08/29 09:39:54;;;;;;;0.88;0.70;;;;;;;;;;5029666;28;20917;-68
2023/08/29 09:42:22;;;;;;;0.88;0.70;;;;;;;;;;5028254;28;20087;-68
2023/08/29 09:44:48;;;;;;;1.13;0.65;;;;;;;;;;5027607;28;20039;-68
2023/08/29 09:47:21;;;;;;;1.35;0.70;;;;;;;;;;5027543;28;20548;-68
2023/08/29 09:49:52;;;;;;;0.95;0.80;;;;;;;;;;5007466;28;20037;-68
2023/08/29 09:52:18;;;;;;;1.48;0.90;;;;;;;;;;5006246;28;20548;-68
2023/08/29 09:54:48;;;;;;;2.35;0.90;;;;;;;;;;5031633;28;20041;-67
2023/08/29 09:57:14;;;;;;;1.42;0.80;;;;;;;;;;5031602;28;20607;-68
2023/08/29 09:59:41;;;;;;;0.85;0.70;;;;;;;;;;5017890;28;20940;-68
2023/08/29 10:02:08;;;;;;;2.80;0.60;;;;;;;;;;5031640;28;20040;-68
2023/08/29 10:04:39;;;;;;;1.05;0.70;;;;;;;;;;5030117;28;20040;-67
2023/08/29 10:07:05;;;;;;;2.83;0.87;;;;;;;;;;5027502;28;20072;-67
2023/08/29 10:09:31;;;;;;;0.95;0.75;;;;;;;;;;5032203;28;20370;-68
2023/08/29 10:11:58;;;;;;;1.88;0.80;;;;;;;;;;5029112;28;20535;-66
2023/08/29 10:14:24;;;;;;;1.58;0.80;;;;;;;;;;5017831;28;20048;-66
2023/08/29 10:16:49;;;;;;;1.15;0.80;;;;;;;;;;5031268;28;20029;-66
2023/08/29 10:19:15;;;;;;;2.25;0.80;;;;;;;;;;5002183;28;20036;-66
2023/08/29 10:21:42;;;;;;;2.50;0.70;;;;;;;;;;5031038;28;20481;-68
2023/08/29 10:24:08;;;;;;;2.95;0.98;;;;;;;;;;5008356;28;20037;-68
2023/08/29 10:26:34;;;;;;;1.52;0.70;;;;;;;;;;4988902;28;20033;-67
2023/08/29 10:29:00;;;;;;;1.23;0.68;;;;;;;;;;5012993;28;20364;-69
2023/08/29 10:31:26;;;;;;;2.65;0.90;;;;;;;;;;5029595;28;20066;-68
2023/08/29 10:33:54;;;;;;;1.13;0.90;;;;;;;;;;5031588;28;20208;-68
2023/08/29 10:36:19;;;;;;;0.82;0.68;;;;;;;;;;5014687;28;20173;-65
2023/08/29 10:38:49;;;;;;;1.55;0.82;;;;;;;;;;5029332;28;20039;-67
2023/08/29 10:41:14;;;;;;;0.80;0.70;;;;;;;;;;5031667;28;20040;-67
2023/08/29 10:43:40;;;;;;;0.80;0.68;;;;;;;;;;5030566;28;20075;-65
2023/08/29 10:46:12;;;;;;;2.13;0.70;;;;;;;;;;5029142;28;20110;-66
2023/08/29 10:48:44;;;;;;;1.30;0.68;;;;;;;;;;5015031;28;20086;-68
2023/08/29 10:51:13;;;;;;;1.25;0.73;;;;;;;;;;5032564;28;20708;-66
2023/08/29 10:53:39;;;;;;;1.15;0.50;;;;;;;;;;5026820;28;20730;-66
2023/08/29 10:56:07;;;;;;;1.15;0.70;;;;;;;;;;5008757;28;20555;-67
2023/08/29 10:58:38;;;;;;;1.75;0.63;;;;;;;;;;5010215;28;20041;-67
2023/08/29 11:01:04;;;;;;;1.80;0.60;;;;;;;;;;5029934;28;20040;-66
2023/08/29 11:03:39;;;;;;;1.40;0.60;;;;;;;;;;5029388;28;20132;-68
2023/08/29 11:06:04;;;;;;;0.80;0.60;;;;;;;;;;5016278;28;20040;-66
2023/08/29 11:08:29;;;;;;;0.95;0.70;;;;;;;;;;5024511;28;20064;-66
2023/08/29 11:11:16;;;;;;;0.90;0.70;;;;;;;;;;5030201;28;20076;-67
2023/08/29 11:13:59;;;;;;;2.35;0.68;;;;;;;;;;5023784;28;20188;-68
2023/08/29 11:16:25;;;;;;;0.93;0.65;;;;;;;;;;5029410;28;20383;-67
2023/08/29 11:19:23;;;;;;;2.20;0.60;;;;;;;;;;5018800;28;20040;-67
2023/08/29 11:21:51;;;;;;;0.95;0.60;;;;;;;;;;4975339;28;20037;-69
2023/08/29 11:24:16;;;;;;;1.67;0.68;;;;;;;;;;5007959;28;20040;-67
2023/08/29 11:26:47;;;;;;;1.13;0.60;;;;;;;;;;5027905;28;20901;-67
2023/08/29 11:29:12;;;;;;;2.08;0.77;;;;;;;;;;5008238;28;20032;-69
2023/08/29 11:31:42;;;;;;;1.98;0.60;;;;;;;;;;5028209;28;20072;-68
2023/08/29 11:34:21;;;;;;;1.40;0.80;;;;;;;;;;5031713;28;20048;-68
2023/08/29 11:36:50;;;;;;;1.23;0.70;;;;;;;;;;5014132;28;20123;-67
2023/08/29 11:39:21;;;;;;;0.90;0.65;;;;;;;;;;5030446;28;20029;-67
2023/08/29 11:41:47;;;;;;;1.40;0.60;;;;;;;;;;5032469;28;20041;-68
2023/08/29 11:44:12;;;;;;;0.82;0.50;;;;;;;;;;5033338;28;20037;-67
2023/08/29 11:46:38;;;;;;;1.67;0.50;;;;;;;;;;5033389;28;20032;-65
2023/08/29 11:49:16;;;;;;;1.17;0.60;;;;;;;;;;5030467;28;20036;-67
2023/08/29 11:51:41;;;;;;;1.10;0.60;;;;;;;;;;5034735;28;20045;-67
2023/08/29 11:54:26;;;;;;;0.77;0.60;;;;;;;;;;5015532;28;20313;-66
2023/08/29 11:56:51;;;;;;;0.77;0.60;;;;;;;;;;5031302;28;20037;-67
2023/08/29 11:59:16;;;;;;;0.93;0.60;;;;;;;;;;5032757;28;20063;-66
2023/08/29 12:01:42;;;;;;;0.60;0.60;;;;;;;;;;5030664;28;20079;-65
2023/08/29 12:04:07;;;;;;;0.77;0.68;;;;;;;;;;5031389;28;20087;-65
2023/08/29 12:06:33;;;;;;;0.82;0.60;;;;;;;;;;5029106;28;20048;-66
2023/08/29 12:08:59;;;;;;;2.50;0.50;;;;;;;;;;5051527;28;20029;-67
2023/08/29 12:11:40;;;;;;;3.78;0.70;;;;;;;;;;5052337;28;20059;-66
2023/08/29 12:14:07;;;;;;;2.22;0.70;;;;;;;;;;5048663;28;20132;-66
2023/08/29 12:16:33;;;;;;;0.90;0.57;;;;;;;;;;5051383;28;20547;-67
2023/08/29 12:19:12;;;;;;;2.33;1.00;;;;;;;;;;5054351;28;20040;-67
2023/08/29 12:21:39;;;;;;;1.27;0.50;;;;;;;;;;5050289;28;20065;-68
2023/08/29 12:24:11;;;;;;;0.93;0.60;;;;;;;;;;5049983;28;20386;-66
2023/08/29 12:26:37;;;;;;;1.58;0.60;;;;;;;;;;5025170;28;20525;-68
2023/08/29 12:29:02;;;;;;;1.60;0.75;;;;;;;;;;5053411;28;20043;-67
2023/08/29 12:31:28;;;;;;;2.78;0.70;;;;;;;;;;5019646;28;20086;-66
2023/08/29 12:33:53;;;;;;;3.30;1.00;;;;;;;;;;5056962;28;20071;-67
2023/08/29 12:36:18;;;;;;;5.28;1.08;;;;;;;;;;5035869;28;20040;-64
2023/08/29 12:38:43;;;;;;;3.83;1.23;;;;;;;;;;5034535;28;20087;-65
2023/08/29 12:41:12;;;;;;;6.75;1.70;;;;;;;;;;5034282;28;20604;-67
2023/08/29 12:43:40;;;;;;;5.32;1.50;;;;;;;;;;5052763;28;20040;-66
2023/08/29 12:46:08;;;;;;;6.15;1.50;;;;;;;;;;5030358;28;20282;-63
2023/08/29 12:48:36;;;;;;;3.55;1.50;;;;;;;;;;5054486;28;22286;-66
2023/08/29 12:51:02;;;;;;;8.45;1.58;;;;;;;;;;5054244;28;20566;-65
2023/08/29 12:53:27;;;;;;;3.75;1.60;;;;;;;;;;5059529;28;20044;-64
2023/08/29 12:55:53;;;;;;;5.97;1.48;;;;;;;;;;5053873;28;20028;-64
2023/08/29 12:58:18;;;;;;;5.68;1.50;;;;;;;;;;5056038;28;20047;-64
2023/08/29 13:00:44;;;;;;;2.72;1.40;;;;;;;;;;5056606;28;20087;-64
2023/08/29 13:03:09;;;;;;;2.45;1.17;;;;;;;;;;5058310;28;20036;-65
2023/08/29 13:05:35;;;;;;;3.42;1.20;;;;;;;;;;5052417;28;20045;-66
2023/08/29 13:08:00;;;;;;;2.90;1.10;;;;;;;;;;5057099;28;20033;-65
2023/08/29 13:10:25;;;;;;;3.88;1.30;;;;;;;;;;5038227;28;20028;-65
2023/08/29 13:12:51;;;;;;;3.55;1.10;;;;;;;;;;5029183;28;20079;-65
2023/08/29 13:15:18;;;;;;;5.60;1.50;;;;;;;;;;5036415;28;20738;-65
2023/08/29 13:17:45;;;;;;;3.15;1.30;;;;;;;;;;5053239;28;20041;-65
2023/08/29 13:20:12;;;;;;;5.65;1.13;;;;;;;;;;5055332;28;20040;-64
2023/08/29 13:22:37;;;;;;;4.30;1.17;;;;;;;;;;5040825;28;20214;-64
2023/08/29 13:25:04;;;;;;;2.72;1.42;;;;;;;;;;5039590;28;20038;-66
2023/08/29 13:27:29;;;;;;;4.43;1.38;;;;;;;;;;5055794;28;20489;-67
2023/08/29 13:29:55;;;;;;;4.00;1.30;;;;;;;;;;5050863;28;20115;-66
2023/08/29 13:32:20;;;;;;;2.17;1.20;;;;;;;;;;5049839;28;20191;-67
2023/08/29 13:34:45;;;;;;;3.45;1.38;;;;;;;;;;5050392;28;20090;-67
2023/08/29 13:37:13;;;;;;;4.25;1.30;;;;;;;;;;5056012;28;20511;-66
2023/08/29 13:39:41;;;;;;;4.00;1.35;;;;;;;;;;5051759;28;20033;-67
2023/08/29 13:42:07;;;;;;;6.30;1.50;;;;;;;;;;5049569;28;20028;-67
2023/08/29 13:44:32;;;;;;;4.78;1.85;;;;;;;;;;5051233;28;20029;-64
2023/08/29 13:47:00;;;;;;;5.38;1.73;;;;;;;;;;5052274;28;20033;-66
2023/08/29 13:49:25;;;;;;;4.30;1.50;;;;;;;;;;5052668;28;20606;-66
2023/08/29 13:51:50;;;;;;;4.45;1.45;;;;;;;;;;5035353;28;20100;-66
2023/08/29 13:54:18;;;;;;;4.55;1.55;;;;;;;;;;5052778;28;20505;-66
2023/08/29 13:56:49;;;;;;;4.90;1.63;;;;;;;;;;5052069;28;20043;-67
2023/08/29 13:59:17;;;;;;;4.57;1.80;;;;;;;;;;5052376;28;20039;-67
2023/08/29 14:01:42;;;;;;;6.15;1.90;;;;;;;;;;5040301;28;20048;-66
2023/08/29 14:04:10;;;;;;;3.47;1.63;;;;;;;;;;5049461;28;20102;-66
2023/08/29 14:06:35;;;;;;;5.90;1.60;;;;;;;;;;5052422;28;20123;-67
2023/08/29 14:09:00;;;;;;;4.30;1.60;;;;;;;;;;5030058;28;20493;-67
2023/08/29 14:11:26;;;;;;;2.90;1.25;;;;;;;;;;5029681;28;20063;-67
2023/08/29 14:13:51;;;;;;;4.97;1.30;;;;;;;;;;5053615;28;20043;-66
2023/08/29 14:16:16;;;;;;;5.32;1.60;;;;;;;;;;5030021;28;20292;-65
2023/08/29 14:18:43;;;;;;;3.08;1.30;;;;;;;;;;5047492;28;20504;-65
2023/08/29 14:21:09;;;;;;;4.68;1.23;;;;;;;;;;5046471;28;20091;-65
2023/08/29 14:23:34;;;;;;;3.35;1.38;;;;;;;;;;5045542;28;20074;-64
2023/08/29 14:26:03;;;;;;;3.47;1.25;;;;;;;;;;5046804;28;20439;-65
2023/08/29 14:28:28;;;;;;;2.95;1.23;;;;;;;;;;5049711;28;20033;-64
2023/08/29 14:30:56;;;;;;;4.00;1.40;;;;;;;;;;5029268;28;20272;-64
2023/08/29 14:33:22;;;;;;;4.05;1.42;;;;;;;;;;5041771;28;20513;-65
2023/08/29 14:35:55;;;;;;;2.65;1.30;;;;;;;;;;5034483;28;20041;-65
2023/08/29 14:38:23;;;;;;;3.45;1.42;;;;;;;;;;5053236;28;20271;-65
2023/08/29 14:40:50;;;;;;;3.30;1.30;;;;;;;;;;5008079;28;20551;-65